createdAt,value
2022-11-15T00:00:01.355Z,1.00
2022-11-15T00:01:01.018Z,1.60
2022-11-15T00:02:01.409Z,3.60
2022-11-15T00:03:00.980Z,0.90
2022-11-15T00:04:00.993Z,15.00
2022-11-15T00:05:00.994Z,8.40
2022-11-15T00:06:03.067Z,2.93
2022-11-15T00:07:01.370Z,2.73
2022-11-15T00:08:01.387Z,3.23
2022-11-15T00:09:02.075Z,2.67
2022-11-15T00:10:01.311Z,2.47
2022-11-15T00:11:03.315Z,2.80
2022-11-15T00:12:01.007Z,2.30
2022-11-15T00:13:05.274Z,3.17
2022-11-15T00:14:01.015Z,2.63
2022-11-15T00:15:01.057Z,2.83
2022-11-15T00:16:02.705Z,1.40
2022-11-15T00:17:01.038Z,1.07
2022-11-15T00:18:01.338Z,2.57
2022-11-15T00:19:01.022Z,2.00
2022-11-15T00:20:01.341Z,4.10
2022-11-15T00:21:05.246Z,2.00
2022-11-15T00:22:01.123Z,7.77
2022-11-15T00:23:03.165Z,2.50
2022-11-15T00:24:01.350Z,3.23
2022-11-15T00:25:01.169Z,2.27
2022-11-15T00:26:01.514Z,2.97
2022-11-15T00:27:01.345Z,2.00
2022-11-15T00:28:01.670Z,1.93
2022-11-15T00:29:01.353Z,2.00
2022-11-15T00:30:01.381Z,2.00
2022-11-15T00:31:01.989Z,2.07
2022-11-15T00:32:01.315Z,2.10
2022-11-15T00:33:03.218Z,2.53
2022-11-15T00:34:00.993Z,4.67
2022-11-15T00:35:00.966Z,3.00
2022-11-15T00:36:02.419Z,4.43
2022-11-15T00:37:00.920Z,4.23
2022-11-15T00:38:01.976Z,3.00
2022-11-15T00:39:03.428Z,6.63
2022-11-15T00:40:00.925Z,3.57
2022-11-15T00:41:07.748Z,4.37
2022-11-15T00:42:01.226Z,3.73
2022-11-15T00:43:01.280Z,2.90
2022-11-15T00:44:01.134Z,3.57
2022-11-15T00:45:00.952Z,3.23
2022-11-15T00:46:01.248Z,27.27
2022-11-15T00:47:00.929Z,14.77
2022-11-15T00:48:01.237Z,8.83
2022-11-15T00:49:00.918Z,5.50
2022-11-15T00:50:00.924Z,9.80
2022-11-15T00:51:01.251Z,39.67
2022-11-15T00:52:00.939Z,16.73
2022-11-15T00:53:01.238Z,14.37
2022-11-15T00:54:01.341Z,8.90
2022-11-15T00:55:01.276Z,10.73
2022-11-15T00:56:00.916Z,10.43
2022-11-15T00:57:01.232Z,9.67
2022-11-15T00:58:00.929Z,12.10
2022-11-15T00:59:00.918Z,8.80
2022-11-15T01:00:00.930Z,7.23
2022-11-15T01:01:11.142Z,5.27
2022-11-15T01:02:01.274Z,6.57
2022-11-15T01:03:01.734Z,6.47
2022-11-15T01:04:01.675Z,6.53
2022-11-15T01:05:00.927Z,4.13
2022-11-15T01:06:01.431Z,6.70
2022-11-15T01:07:00.962Z,6.23
2022-11-15T01:08:01.221Z,7.37
2022-11-15T01:09:00.924Z,7.57
2022-11-15T01:10:00.983Z,8.20
2022-11-15T01:11:02.308Z,8.03
2022-11-15T01:12:01.245Z,10.40
2022-11-15T01:13:00.937Z,9.30
2022-11-15T01:14:01.237Z,9.60
2022-11-15T01:15:00.920Z,11.40
2022-11-15T01:16:07.066Z,9.37
2022-11-15T01:17:01.457Z,10.63
2022-11-15T01:18:00.936Z,9.77
2022-11-15T01:19:01.325Z,9.07
2022-11-15T01:20:01.273Z,10.53
2022-11-15T01:21:05.796Z,9.50
2022-11-15T01:22:00.935Z,9.43
2022-11-15T01:23:00.939Z,9.33
2022-11-15T01:24:01.250Z,10.93
2022-11-15T01:25:01.218Z,10.03
2022-11-15T01:26:01.723Z,10.90
2022-11-15T01:27:00.927Z,10.43
2022-11-15T01:28:01.514Z,10.30
2022-11-15T01:29:00.994Z,11.57
2022-11-15T01:30:00.947Z,13.23
2022-11-15T01:31:03.448Z,10.97
2022-11-15T01:32:01.325Z,12.23
2022-11-15T01:33:01.232Z,10.10
2022-11-15T01:34:01.260Z,12.37
2022-11-15T01:35:00.952Z,12.23
2022-11-15T01:36:04.342Z,12.87
2022-11-15T01:37:01.461Z,11.60
2022-11-15T01:38:00.942Z,12.43
2022-11-15T01:39:01.784Z,13.80
2022-11-15T01:40:01.209Z,14.70
2022-11-15T01:41:01.261Z,12.33
2022-11-15T01:42:01.238Z,14.60
2022-11-15T01:43:19.144Z,13.87
2022-11-15T01:44:20.411Z,13.40
2022-11-15T01:45:01.349Z,13.43
2022-11-15T01:46:10.079Z,15.17
2022-11-15T01:47:04.052Z,12.93
2022-11-15T01:48:01.360Z,14.40
2022-11-15T01:49:11.752Z,12.37
2022-11-15T01:50:06.139Z,11.87
2022-11-15T01:51:03.867Z,11.37
2022-11-15T01:52:03.933Z,13.73
2022-11-15T01:53:01.134Z,10.53
2022-11-15T01:54:05.588Z,11.53
2022-11-15T01:55:05.776Z,10.47
2022-11-15T01:56:04.730Z,11.27
2022-11-15T01:57:06.686Z,11.97
2022-11-15T01:58:04.485Z,12.13
2022-11-15T01:59:07.141Z,12.40
2022-11-15T02:00:04.184Z,10.17
2022-11-15T02:01:01.092Z,11.83
2022-11-15T02:02:01.374Z,10.53
2022-11-15T02:03:02.314Z,10.90
2022-11-15T02:04:07.057Z,10.70
2022-11-15T02:05:01.319Z,13.87
2022-11-15T02:06:03.827Z,12.00
2022-11-15T02:07:03.269Z,11.67
2022-11-15T02:08:01.371Z,10.93
2022-11-15T02:09:01.593Z,13.23
2022-11-15T02:10:06.781Z,9.77
2022-11-15T02:11:00.927Z,9.87
2022-11-15T02:12:01.579Z,11.30
2022-11-15T02:13:02.311Z,14.20
2022-11-15T02:14:03.608Z,10.57
2022-11-15T02:15:02.742Z,10.13
2022-11-15T02:16:14.172Z,10.50
2022-11-15T02:17:12.742Z,10.17
2022-11-15T02:18:12.766Z,11.20
2022-11-15T02:19:18.802Z,10.40
2022-11-15T02:20:20.406Z,12.87
2022-11-15T02:21:14.950Z,12.17
2022-11-15T02:22:17.004Z,12.80
2022-11-15T02:23:20.411Z,13.40
2022-11-15T02:24:20.402Z,15.67
2022-11-15T02:25:14.699Z,11.67
2022-11-15T02:26:19.362Z,14.47
2022-11-15T02:27:20.397Z,12.67
2022-11-15T02:28:20.404Z,13.53
2022-11-15T02:29:07.878Z,14.33
2022-11-15T02:30:17.338Z,13.13
2022-11-15T02:31:08.222Z,15.60
2022-11-15T02:32:06.821Z,13.90
2022-11-15T02:33:10.917Z,14.13
2022-11-15T02:34:11.819Z,13.00
2022-11-15T02:35:10.181Z,13.57
2022-11-15T02:36:05.983Z,10.73
2022-11-15T02:37:10.937Z,11.70
2022-11-15T02:38:09.696Z,11.37
2022-11-15T02:39:09.679Z,13.17
2022-11-15T02:40:08.365Z,10.63
2022-11-15T02:41:06.033Z,15.27
2022-11-15T02:42:06.078Z,12.60
2022-11-15T02:43:08.918Z,11.47
2022-11-15T02:44:07.433Z,10.63
2022-11-15T02:45:06.533Z,12.00
2022-11-15T02:46:08.622Z,11.67
2022-11-15T02:47:06.250Z,14.90
2022-11-15T02:48:04.157Z,10.57
2022-11-15T02:49:01.168Z,12.53
2022-11-15T02:50:06.251Z,12.00
2022-11-15T02:51:02.408Z,11.00
2022-11-15T02:52:01.583Z,11.27
2022-11-15T02:53:02.191Z,13.43
2022-11-15T02:54:00.981Z,10.97
2022-11-15T02:55:02.184Z,11.70
2022-11-15T02:56:01.987Z,10.43
2022-11-15T02:57:06.038Z,13.90
2022-11-15T02:58:19.864Z,11.10
2022-11-15T02:59:19.677Z,9.53
2022-11-15T03:00:06.536Z,9.27
2022-11-15T03:01:08.316Z,11.03
2022-11-15T03:02:14.260Z,11.53
2022-11-15T03:03:12.600Z,12.33
2022-11-15T03:04:11.913Z,11.23
2022-11-15T03:05:10.439Z,9.90
2022-11-15T03:06:12.425Z,9.53
2022-11-15T03:07:10.465Z,8.90
2022-11-15T03:08:09.836Z,10.27
2022-11-15T03:09:08.270Z,9.97
2022-11-15T03:10:09.256Z,8.00
2022-11-15T03:11:08.647Z,6.67
2022-11-15T03:12:07.746Z,9.60
2022-11-15T03:13:09.958Z,9.37
2022-11-15T03:14:08.881Z,9.57
2022-11-15T03:15:06.842Z,9.27
2022-11-15T03:16:05.280Z,9.07
2022-11-15T03:17:10.070Z,10.67
2022-11-15T03:18:06.596Z,6.17
2022-11-15T03:19:15.011Z,10.07
2022-11-15T03:20:06.156Z,8.43
2022-11-15T03:21:05.752Z,8.73
2022-11-15T03:22:04.883Z,9.40
2022-11-15T03:23:05.456Z,9.57
2022-11-15T03:24:05.649Z,10.63
2022-11-15T03:25:06.847Z,9.50
2022-11-15T03:26:01.749Z,8.80
2022-11-15T03:27:03.445Z,9.97
2022-11-15T03:28:05.735Z,9.97
2022-11-15T03:29:06.704Z,9.50
2022-11-15T03:30:04.315Z,10.20
2022-11-15T03:31:04.283Z,9.83
2022-11-15T03:32:07.851Z,10.90
2022-11-15T03:33:04.230Z,8.83
2022-11-15T03:34:04.821Z,7.93
2022-11-15T03:35:05.111Z,9.90
2022-11-15T03:36:01.184Z,12.77
2022-11-15T03:37:01.829Z,13.03
2022-11-15T03:38:11.831Z,12.33
2022-11-15T03:39:06.583Z,11.00
2022-11-15T03:40:03.307Z,10.63
2022-11-15T03:41:04.959Z,9.80
2022-11-15T03:42:09.408Z,9.70
2022-11-15T03:43:08.004Z,10.00
2022-11-15T03:44:10.291Z,11.60
2022-11-15T03:45:13.503Z,10.07
2022-11-15T03:46:06.048Z,10.67
2022-11-15T03:47:06.917Z,10.20
2022-11-15T03:48:09.481Z,10.27
2022-11-15T03:49:11.191Z,13.83
2022-11-15T03:50:07.677Z,9.30
2022-11-15T03:51:02.744Z,10.17
2022-11-15T03:52:02.945Z,9.60
2022-11-15T03:53:01.805Z,9.97
2022-11-15T03:54:03.108Z,11.40
2022-11-15T03:55:03.866Z,10.27
2022-11-15T03:56:01.323Z,11.47
2022-11-15T03:57:01.016Z,11.60
2022-11-15T03:58:01.544Z,9.80
2022-11-15T03:59:01.325Z,9.90
2022-11-15T04:00:01.001Z,10.27
2022-11-15T04:01:01.409Z,10.80
2022-11-15T04:02:01.161Z,9.80
2022-11-15T04:03:01.330Z,12.73
2022-11-15T04:04:01.007Z,10.77
2022-11-15T04:05:01.026Z,10.10
2022-11-15T04:06:01.004Z,11.60
2022-11-15T04:07:01.357Z,11.13
2022-11-15T04:08:00.975Z,10.70
2022-11-15T04:09:00.970Z,12.17
2022-11-15T04:10:00.945Z,13.97
2022-11-15T04:11:02.381Z,10.00
2022-11-15T04:12:00.927Z,12.33
2022-11-15T04:13:03.006Z,14.00
2022-11-15T04:14:01.085Z,20.63
2022-11-15T04:15:03.967Z,12.07
2022-11-15T04:16:01.212Z,16.53
2022-11-15T04:17:00.930Z,12.00
2022-11-15T04:18:01.277Z,16.43
2022-11-15T04:19:01.213Z,10.73
2022-11-15T04:20:00.918Z,14.70
2022-11-15T04:21:00.962Z,14.43
2022-11-15T04:22:01.223Z,12.53
2022-11-15T04:23:03.211Z,15.20
2022-11-15T04:24:01.185Z,10.50
2022-11-15T04:25:01.232Z,13.63
2022-11-15T04:26:03.645Z,10.33
2022-11-15T04:27:01.438Z,12.50
2022-11-15T04:28:00.933Z,17.97
2022-11-15T04:29:01.238Z,14.97
2022-11-15T04:30:01.065Z,16.20
2022-11-15T04:31:01.383Z,15.33
2022-11-15T04:32:00.950Z,11.37
2022-11-15T04:33:01.249Z,11.90
2022-11-15T04:34:01.033Z,14.40
2022-11-15T04:35:01.258Z,10.33
2022-11-15T04:36:01.216Z,12.83
2022-11-15T04:37:01.229Z,16.40
2022-11-15T04:38:02.697Z,14.63
2022-11-15T04:39:01.226Z,19.20
2022-11-15T04:40:01.222Z,10.93
2022-11-15T04:41:01.859Z,13.70
2022-11-15T04:42:01.268Z,13.60
2022-11-15T04:43:03.847Z,16.30
2022-11-15T04:44:01.323Z,16.50
2022-11-15T04:45:00.926Z,24.53
2022-11-15T04:46:01.259Z,27.53
2022-11-15T04:47:01.715Z,35.07
2022-11-15T04:48:01.216Z,38.43
2022-11-15T04:49:01.273Z,27.30
2022-11-15T04:50:01.094Z,19.27
2022-11-15T04:51:01.203Z,20.90
2022-11-15T04:52:00.933Z,18.27
2022-11-15T04:53:01.239Z,18.73
2022-11-15T04:54:01.262Z,20.50
2022-11-15T04:55:06.676Z,18.87
2022-11-15T04:56:01.238Z,15.37
2022-11-15T04:57:01.183Z,11.43
2022-11-15T04:58:02.134Z,12.57
2022-11-15T04:59:01.261Z,14.40
2022-11-15T05:00:02.613Z,12.93
2022-11-15T05:01:07.661Z,14.53
2022-11-15T05:02:01.321Z,12.60
2022-11-15T05:03:00.953Z,11.40
2022-11-15T05:04:01.277Z,14.77
2022-11-15T05:05:00.925Z,13.07
2022-11-15T05:06:01.554Z,9.57
2022-11-15T05:07:01.298Z,11.60
2022-11-15T05:08:01.526Z,11.70
2022-11-15T05:09:01.228Z,10.60
2022-11-15T05:10:00.950Z,10.37
2022-11-15T05:11:00.933Z,11.83
2022-11-15T05:12:01.200Z,15.37
2022-11-15T05:13:01.250Z,10.47
2022-11-15T05:14:00.927Z,12.27
2022-11-15T05:15:01.289Z,11.07
2022-11-15T05:16:00.937Z,11.13
2022-11-15T05:17:01.217Z,11.77
2022-11-15T05:18:00.935Z,15.47
2022-11-15T05:19:01.609Z,13.77
2022-11-15T05:20:01.375Z,12.23
2022-11-15T05:21:03.905Z,10.53
2022-11-15T05:22:00.919Z,14.00
2022-11-15T05:23:01.256Z,11.50
2022-11-15T05:24:01.874Z,11.07
2022-11-15T05:25:01.242Z,10.23
2022-11-15T05:26:07.882Z,10.70
2022-11-15T05:27:00.942Z,10.40
2022-11-15T05:28:00.915Z,11.13
2022-11-15T05:29:00.907Z,9.53
2022-11-15T05:30:01.264Z,12.20
2022-11-15T05:31:01.686Z,11.90
2022-11-15T05:32:01.232Z,8.77
2022-11-15T05:33:01.734Z,10.67
2022-11-15T05:34:01.835Z,10.23
2022-11-15T05:35:01.380Z,9.53
2022-11-15T05:36:05.326Z,11.60
2022-11-15T05:37:01.568Z,9.70
2022-11-15T05:38:01.243Z,13.27
2022-11-15T05:39:02.027Z,10.67
2022-11-15T05:40:00.927Z,8.93
2022-11-15T05:41:02.188Z,11.73
2022-11-15T05:42:06.170Z,10.37
2022-11-15T05:43:04.334Z,8.73
2022-11-15T05:44:03.376Z,11.40
2022-11-15T05:45:05.686Z,8.37
2022-11-15T05:46:04.519Z,9.30
2022-11-15T05:47:03.095Z,8.80
2022-11-15T05:48:06.897Z,10.40
2022-11-15T05:49:01.369Z,11.63
2022-11-15T05:50:01.888Z,9.73
2022-11-15T05:51:02.499Z,9.30
2022-11-15T05:52:05.383Z,13.80
2022-11-15T05:53:05.062Z,11.03
2022-11-15T05:54:01.538Z,8.53
2022-11-15T05:55:03.181Z,9.80
2022-11-15T05:56:01.463Z,11.00
2022-11-15T05:57:01.232Z,9.03
2022-11-15T05:58:01.562Z,10.20
2022-11-15T05:59:01.324Z,13.60
2022-11-15T06:00:01.526Z,9.97
2022-11-15T06:01:01.156Z,12.20
2022-11-15T06:02:00.995Z,10.30
2022-11-15T06:03:01.170Z,10.03
2022-11-15T06:04:01.487Z,11.77
2022-11-15T06:05:01.401Z,10.43
2022-11-15T06:06:01.284Z,9.57
2022-11-15T06:07:01.112Z,11.07
2022-11-15T06:08:01.246Z,10.80
2022-11-15T06:09:01.055Z,9.03
2022-11-15T06:10:01.474Z,9.87
2022-11-15T06:11:04.754Z,9.73
2022-11-15T06:12:00.935Z,9.57
2022-11-15T06:13:03.155Z,10.07
2022-11-15T06:14:01.419Z,9.53
2022-11-15T06:15:00.936Z,8.43
2022-11-15T06:16:01.396Z,11.43
2022-11-15T06:17:01.246Z,10.67
2022-11-15T06:18:01.509Z,9.83
2022-11-15T06:19:01.507Z,10.97
2022-11-15T06:20:01.205Z,9.97
2022-11-15T06:21:01.964Z,12.83
2022-11-15T06:22:00.988Z,12.40
2022-11-15T06:23:03.091Z,8.97
2022-11-15T06:24:01.257Z,8.77
2022-11-15T06:25:05.151Z,11.63
2022-11-15T06:26:02.530Z,8.93
2022-11-15T06:27:00.922Z,9.23
2022-11-15T06:28:00.936Z,8.53
2022-11-15T06:29:02.366Z,9.50
2022-11-15T06:30:00.941Z,8.50
2022-11-15T06:31:03.548Z,9.80
2022-11-15T06:32:00.920Z,10.17
2022-11-15T06:33:02.803Z,8.17
2022-11-15T06:34:01.228Z,9.97
2022-11-15T06:35:00.925Z,10.60
2022-11-15T06:36:02.528Z,7.43
2022-11-15T06:37:01.307Z,10.50
2022-11-15T06:38:03.404Z,10.57
2022-11-15T06:39:00.920Z,9.70
2022-11-15T06:40:01.246Z,8.27
2022-11-15T06:41:03.762Z,8.10
2022-11-15T06:42:00.924Z,10.97
2022-11-15T06:43:02.385Z,9.90
2022-11-15T06:44:01.331Z,10.50
2022-11-15T06:45:01.208Z,9.13
2022-11-15T06:46:02.410Z,10.60
2022-11-15T06:47:01.252Z,9.80
2022-11-15T06:48:01.140Z,9.43
2022-11-15T06:49:05.263Z,12.17
2022-11-15T06:50:01.238Z,9.27
2022-11-15T06:51:02.372Z,8.70
2022-11-15T06:52:01.254Z,9.40
2022-11-15T06:53:01.469Z,10.00
2022-11-15T06:54:01.331Z,7.67
2022-11-15T06:55:00.948Z,10.47
2022-11-15T06:56:01.774Z,9.20
2022-11-15T06:57:00.931Z,8.17
2022-11-15T06:58:01.181Z,10.10
2022-11-15T06:59:01.374Z,8.53
2022-11-15T07:00:01.613Z,7.80
2022-11-15T07:01:02.637Z,9.27
2022-11-15T07:02:00.931Z,8.50
2022-11-15T07:03:01.383Z,10.50
2022-11-15T07:04:00.913Z,8.83
2022-11-15T07:05:00.910Z,9.10
2022-11-15T07:06:06.795Z,10.57
2022-11-15T07:07:01.280Z,8.27
2022-11-15T07:08:01.142Z,7.93
2022-11-15T07:09:02.862Z,9.33
2022-11-15T07:10:00.920Z,7.97
2022-11-15T07:11:03.378Z,10.47
2022-11-15T07:12:07.337Z,8.40
2022-11-15T07:13:00.917Z,8.87
2022-11-15T07:14:00.919Z,8.43
2022-11-15T07:15:01.252Z,5.80
2022-11-15T07:16:02.793Z,9.10
2022-11-15T07:17:03.928Z,8.47
2022-11-15T07:18:01.940Z,9.80
2022-11-15T07:19:00.932Z,9.63
2022-11-15T07:20:01.145Z,7.93
2022-11-15T07:21:01.770Z,7.47
2022-11-15T07:22:00.931Z,10.30
2022-11-15T07:23:01.466Z,8.20
2022-11-15T07:24:01.254Z,9.63
2022-11-15T07:25:01.245Z,12.50
2022-11-15T07:26:00.954Z,9.17
2022-11-15T07:27:00.925Z,11.70
2022-11-15T07:28:00.952Z,8.97
2022-11-15T07:29:01.083Z,8.47
2022-11-15T07:30:01.129Z,7.00
2022-11-15T07:31:03.281Z,7.33
2022-11-15T07:32:01.241Z,10.30
2022-11-15T07:33:01.555Z,8.00
2022-11-15T07:34:00.951Z,9.70
2022-11-15T07:35:00.944Z,9.30
2022-11-15T07:36:01.663Z,8.03
2022-11-15T07:37:00.915Z,11.03
2022-11-15T07:38:02.394Z,8.43
2022-11-15T07:39:01.353Z,8.47
2022-11-15T07:40:00.920Z,8.87
2022-11-15T07:41:03.155Z,11.07
2022-11-15T07:42:01.306Z,9.70
2022-11-15T07:43:02.125Z,8.60
2022-11-15T07:44:01.254Z,10.20
2022-11-15T07:45:01.229Z,8.53
2022-11-15T07:46:05.984Z,11.00
2022-11-15T07:47:00.911Z,9.27
2022-11-15T07:48:01.632Z,8.97
2022-11-15T07:49:01.221Z,10.37
2022-11-15T07:50:00.936Z,11.47
2022-11-15T07:51:01.359Z,10.97
2022-11-15T07:52:00.942Z,10.40
2022-11-15T07:53:01.494Z,7.63
2022-11-15T07:54:00.934Z,7.40
2022-11-15T07:55:00.926Z,7.47
2022-11-15T07:56:00.930Z,9.20
2022-11-15T07:57:06.675Z,7.27
2022-11-15T07:58:01.301Z,9.40
2022-11-15T07:59:00.922Z,6.67
2022-11-15T08:00:01.603Z,8.93
2022-11-15T08:01:03.708Z,11.23
2022-11-15T08:02:01.926Z,8.00
2022-11-15T08:03:03.648Z,9.13
2022-11-15T08:04:01.037Z,6.87
2022-11-15T08:05:01.225Z,9.47
2022-11-15T08:06:01.277Z,11.00
2022-11-15T08:07:01.032Z,10.07
2022-11-15T08:08:01.790Z,8.07
2022-11-15T08:09:01.003Z,8.50
2022-11-15T08:10:01.256Z,8.30
2022-11-15T08:11:01.435Z,7.67
2022-11-15T08:12:01.205Z,9.57
2022-11-15T08:13:03.359Z,10.27
2022-11-15T08:14:00.926Z,9.17
2022-11-15T08:15:01.294Z,10.40
2022-11-15T08:16:02.514Z,10.07
2022-11-15T08:17:01.251Z,8.23
2022-11-15T08:18:02.843Z,9.27
2022-11-15T08:19:00.944Z,9.83
2022-11-15T08:20:01.226Z,8.93
2022-11-15T08:21:02.264Z,10.83
2022-11-15T08:22:01.235Z,14.57
2022-11-15T08:23:03.162Z,20.97
2022-11-15T08:24:00.930Z,19.70
2022-11-15T08:25:00.925Z,17.30
2022-11-15T08:26:03.304Z,18.87
2022-11-15T08:27:00.929Z,17.90
2022-11-15T08:28:04.407Z,14.57
2022-11-15T08:29:01.235Z,9.93
2022-11-15T08:30:01.238Z,9.77
2022-11-15T08:31:01.214Z,9.70
2022-11-15T08:32:00.935Z,11.80
2022-11-15T08:33:00.931Z,12.70
2022-11-15T08:34:01.163Z,8.83
2022-11-15T08:35:01.226Z,13.20
2022-11-15T08:36:01.985Z,8.43
2022-11-15T08:37:01.384Z,10.30
2022-11-15T08:38:01.209Z,12.60
2022-11-15T08:39:01.497Z,9.27
2022-11-15T08:40:01.265Z,11.40
2022-11-15T08:41:04.339Z,9.60
2022-11-15T08:42:00.964Z,10.50
2022-11-15T08:43:00.935Z,10.80
2022-11-15T08:44:01.389Z,15.13
2022-11-15T08:45:00.930Z,10.87
2022-11-15T08:46:00.959Z,10.97
2022-11-15T08:47:01.216Z,11.77
2022-11-15T08:48:02.068Z,9.97
2022-11-15T08:49:01.213Z,8.43
2022-11-15T08:50:01.004Z,11.10
2022-11-15T08:51:00.965Z,10.60
2022-11-15T08:52:00.925Z,9.50
2022-11-15T08:53:05.486Z,12.03
2022-11-15T08:54:00.927Z,9.00
2022-11-15T08:55:01.247Z,10.17
2022-11-15T08:56:01.002Z,9.03
2022-11-15T08:57:00.974Z,12.07
2022-11-15T08:58:00.954Z,10.63
2022-11-15T08:59:01.197Z,13.33
2022-11-15T09:00:01.431Z,10.83
2022-11-15T09:01:01.392Z,9.53
2022-11-15T09:02:01.006Z,9.43
2022-11-15T09:03:03.669Z,12.77
2022-11-15T09:04:01.245Z,13.80
2022-11-15T09:05:00.936Z,11.77
2022-11-15T09:06:01.561Z,8.73
2022-11-15T09:07:01.260Z,15.50
2022-11-15T09:08:06.549Z,14.47
2022-11-15T09:09:01.602Z,16.93
2022-11-15T09:10:01.386Z,17.20
2022-11-15T09:11:03.037Z,16.47
2022-11-15T09:12:02.794Z,13.27
2022-11-15T09:13:00.946Z,9.43
2022-11-15T09:14:01.309Z,16.30
2022-11-15T09:15:00.958Z,17.43
2022-11-15T09:16:01.683Z,17.20
2022-11-15T09:17:01.231Z,18.27
2022-11-15T09:18:00.935Z,12.80
2022-11-15T09:19:01.347Z,9.97
2022-11-15T09:20:01.025Z,8.73
2022-11-15T09:21:01.621Z,12.90
2022-11-15T09:22:01.314Z,15.30
2022-11-15T09:23:01.734Z,12.13
2022-11-15T09:24:00.936Z,10.93
2022-11-15T09:25:01.225Z,9.60
2022-11-15T09:26:02.345Z,9.70
2022-11-15T09:27:01.335Z,12.03
2022-11-15T09:28:00.932Z,10.47
2022-11-15T09:29:01.251Z,11.73
2022-11-15T09:30:01.237Z,11.23
2022-11-15T09:31:03.993Z,11.80
2022-11-15T09:32:01.055Z,11.50
2022-11-15T09:33:07.435Z,12.63
2022-11-15T09:34:01.237Z,10.20
2022-11-15T09:35:00.930Z,11.57
2022-11-15T09:36:01.887Z,12.60
2022-11-15T09:37:01.093Z,11.60
2022-11-15T09:38:00.983Z,10.97
2022-11-15T09:39:01.358Z,9.33
2022-11-15T09:40:01.385Z,9.97
2022-11-15T09:41:20.405Z,12.33
2022-11-15T09:42:20.414Z,10.80
2022-11-15T09:43:16.200Z,11.80
2022-11-15T09:44:11.715Z,8.53
2022-11-15T09:45:11.829Z,12.63
2022-11-15T09:46:15.908Z,7.80
2022-11-15T09:47:18.949Z,12.27
2022-11-15T09:48:13.132Z,11.27
2022-11-15T09:49:02.713Z,9.23
2022-11-15T09:50:09.135Z,9.80
2022-11-15T09:51:04.604Z,12.13
2022-11-15T09:52:01.555Z,11.43
2022-11-15T09:53:01.343Z,11.03
2022-11-15T09:55:01.263Z,9.63
2022-11-15T09:56:03.748Z,11.13
2022-11-15T09:57:07.058Z,12.47
2022-11-15T09:58:09.426Z,11.80
2022-11-15T09:59:15.998Z,11.97
2022-11-15T10:00:44.182Z,7.37
2022-11-15T10:01:05.222Z,8.17
2022-11-15T10:02:14.724Z,8.80
2022-11-15T10:03:11.916Z,11.07
2022-11-15T10:04:01.342Z,11.27
2022-11-15T10:05:02.109Z,11.90
2022-11-15T10:06:04.011Z,8.70
2022-11-15T10:07:06.194Z,11.40
2022-11-15T10:08:10.009Z,9.97
2022-11-15T10:09:06.480Z,9.50
2022-11-15T10:10:09.482Z,11.90
2022-11-15T10:11:35.485Z,11.33
2022-11-15T10:12:01.278Z,13.93
2022-11-15T10:13:01.361Z,9.87
2022-11-15T10:14:04.606Z,11.20
2022-11-15T10:15:12.104Z,8.80
2022-11-15T10:16:14.360Z,7.93
2022-11-15T10:17:20.407Z,8.83
2022-11-15T10:18:14.027Z,11.27
2022-11-15T10:19:10.108Z,10.87
2022-11-15T10:20:12.888Z,9.60
2022-11-15T10:21:15.638Z,10.90
2022-11-15T10:22:20.401Z,13.13
2022-11-15T10:23:05.793Z,12.00
2022-11-15T10:24:01.412Z,12.43
2022-11-15T10:25:15.071Z,13.47
2022-11-15T10:26:06.576Z,11.53
2022-11-15T10:27:01.223Z,12.03
2022-11-15T10:28:11.227Z,12.70
2022-11-15T10:29:00.915Z,12.70
2022-11-15T10:30:01.382Z,9.10
2022-11-15T10:31:02.189Z,8.90
2022-11-15T10:32:00.960Z,12.40
2022-11-15T10:33:13.947Z,9.37
2022-11-15T10:34:12.950Z,11.33
2022-11-15T10:35:18.957Z,11.70
2022-11-15T10:36:20.032Z,11.07
2022-11-15T10:37:01.395Z,11.10
2022-11-15T10:38:10.913Z,8.57
2022-11-15T10:39:00.922Z,11.27
2022-11-15T10:40:05.702Z,12.23
2022-11-15T10:41:08.023Z,11.50
2022-11-15T10:42:20.408Z,8.70
2022-11-15T10:43:15.093Z,9.03
2022-11-15T10:44:08.671Z,10.27
2022-11-15T10:45:01.224Z,11.07
2022-11-15T10:46:45.144Z,9.73
2022-11-15T10:47:15.830Z,14.43
2022-11-15T10:48:20.399Z,11.53
2022-11-15T10:49:13.478Z,12.17
2022-11-15T10:50:06.030Z,12.47
2022-11-15T10:51:02.113Z,8.47
2022-11-15T10:52:04.532Z,11.53
2022-11-15T10:53:02.281Z,10.47
2022-11-15T10:54:01.350Z,8.33
2022-11-15T10:55:13.726Z,12.00
2022-11-15T10:56:05.534Z,12.50
2022-11-15T10:57:06.861Z,10.33
2022-11-15T10:58:05.792Z,9.13
2022-11-15T10:59:01.354Z,10.93
2022-11-15T11:00:03.877Z,9.87
2022-11-15T11:01:12.888Z,9.60
2022-11-15T11:02:01.013Z,11.87
2022-11-15T11:03:03.521Z,9.40
2022-11-15T11:04:02.679Z,10.90
2022-11-15T11:05:03.043Z,11.93
2022-11-15T11:06:07.760Z,11.63
2022-11-15T11:07:01.020Z,8.80
2022-11-15T11:08:03.588Z,10.43
2022-11-15T11:09:03.513Z,12.00
2022-11-15T11:10:13.338Z,10.67
2022-11-15T11:11:03.959Z,9.23
2022-11-15T11:12:02.646Z,10.27
2022-11-15T11:13:14.660Z,9.20
2022-11-15T11:14:12.372Z,11.60
2022-11-15T11:15:09.813Z,10.87
2022-11-15T11:16:16.303Z,11.83
2022-11-15T11:17:09.281Z,8.30
2022-11-15T11:18:08.165Z,8.53
2022-11-15T11:19:11.962Z,9.70
2022-11-15T11:20:10.724Z,12.07
2022-11-15T11:21:09.538Z,12.90
2022-11-15T11:22:09.744Z,13.60
2022-11-15T11:23:14.279Z,7.43
2022-11-15T11:24:10.283Z,15.17
2022-11-15T11:25:14.027Z,11.03
2022-11-15T11:26:13.975Z,11.03
2022-11-15T11:27:18.898Z,9.00
2022-11-15T11:28:19.131Z,10.23
2022-11-15T11:29:14.664Z,10.10
2022-11-15T11:30:09.876Z,9.00
2022-11-15T11:31:17.612Z,11.90
2022-11-15T11:32:18.314Z,11.23
2022-11-15T11:33:13.146Z,12.27
2022-11-15T11:34:13.309Z,11.47
2022-11-15T11:35:11.926Z,13.57
2022-11-15T11:36:12.218Z,12.13
2022-11-15T11:37:10.118Z,11.47
2022-11-15T11:38:17.954Z,11.13
2022-11-15T11:39:19.856Z,12.63
2022-11-15T11:40:16.343Z,10.90
2022-11-15T11:41:10.826Z,12.83
2022-11-15T11:42:10.645Z,8.20
2022-11-15T11:43:12.605Z,11.47
2022-11-15T11:44:17.255Z,11.10
2022-11-15T11:45:15.398Z,9.57
2022-11-15T11:46:17.779Z,10.10
2022-11-15T11:47:03.969Z,12.90
2022-11-15T11:48:13.001Z,12.77
2022-11-15T11:49:08.320Z,11.43
2022-11-15T11:50:10.569Z,12.53
2022-11-15T11:51:05.713Z,28.03
2022-11-15T11:52:05.789Z,25.50
2022-11-15T11:53:11.316Z,16.83
2022-11-15T11:54:05.873Z,10.10
2022-11-15T11:55:12.719Z,11.00
2022-11-15T11:56:09.725Z,13.10
2022-11-15T11:57:06.660Z,9.53
2022-11-15T11:58:12.357Z,13.27
2022-11-15T11:59:10.176Z,9.60
2022-11-15T12:00:12.561Z,12.47
2022-11-15T12:01:12.942Z,12.20
2022-11-15T12:02:13.090Z,13.83
2022-11-15T12:03:09.622Z,11.20
2022-11-15T12:04:09.971Z,13.17
2022-11-15T12:05:10.211Z,11.50
2022-11-15T12:06:06.728Z,11.37
2022-11-15T12:07:09.183Z,8.90
2022-11-15T12:08:09.541Z,12.37
2022-11-15T12:09:07.067Z,10.50
2022-11-15T12:10:12.991Z,12.07
2022-11-15T12:11:11.266Z,10.90
2022-11-15T12:12:09.308Z,12.20
2022-11-15T12:13:07.293Z,12.60
2022-11-15T12:14:04.062Z,16.57
2022-11-15T12:15:04.426Z,11.10
2022-11-15T12:16:10.383Z,10.20
2022-11-15T12:17:01.980Z,14.20
2022-11-15T12:18:02.117Z,12.63
2022-11-15T12:19:04.262Z,15.40
2022-11-15T12:20:04.530Z,16.97
2022-11-15T12:21:07.060Z,18.43
2022-11-15T12:22:07.286Z,22.87
2022-11-15T12:23:07.846Z,22.03
2022-11-15T12:24:05.488Z,14.93
2022-11-15T12:25:05.790Z,14.97
2022-11-15T12:26:05.425Z,20.47
2022-11-15T12:27:07.644Z,15.43
2022-11-15T12:28:12.129Z,13.57
2022-11-15T12:29:08.812Z,12.37
2022-11-15T12:30:09.253Z,11.13
2022-11-15T12:31:10.132Z,13.00
2022-11-15T12:32:01.422Z,11.00
2022-11-15T12:33:02.084Z,12.30
2022-11-15T12:34:07.327Z,11.60
2022-11-15T12:35:03.554Z,13.13
2022-11-15T12:36:03.980Z,12.70
2022-11-15T12:37:01.252Z,12.57
2022-11-15T12:38:01.140Z,13.97
2022-11-15T12:39:03.441Z,12.10
2022-11-15T12:40:20.141Z,13.53
2022-11-15T12:41:12.966Z,11.33
2022-11-15T12:42:20.410Z,10.73
2022-11-15T12:43:13.014Z,12.73
2022-11-15T12:44:03.413Z,10.13
2022-11-15T12:45:01.272Z,12.00
2022-11-15T12:46:05.248Z,10.17
2022-11-15T12:47:04.741Z,11.10
2022-11-15T12:48:20.400Z,10.63
2022-11-15T12:49:03.230Z,12.37
2022-11-15T12:50:01.423Z,14.87
2022-11-15T12:51:01.067Z,12.87
2022-11-15T12:52:07.036Z,20.60
2022-11-15T12:53:20.411Z,17.63
2022-11-15T12:54:20.400Z,19.83
2022-11-15T12:55:11.979Z,14.10
2022-11-15T12:56:20.398Z,15.77
2022-11-15T12:57:20.419Z,18.50
2022-11-15T12:58:20.401Z,15.80
2022-11-15T12:59:01.566Z,14.50
2022-11-15T13:00:05.477Z,16.53
2022-11-15T13:01:01.306Z,13.70
2022-11-15T13:02:01.543Z,13.10